Time;durP1;ratioP1;P1;durP2;ratioP2;P2;SDS_P1;SDS_P2;PMS_P1;PMS_P2;Temp;Humidity;BMP_temperature;BMP_pressure;BME280_temperature;BME280_humidity;BME280_pressure;Samples;Min_cycle;Max_cycle;Signal;HPM_P1;HPM_P2
2022/10/11 00:02:17;;;;;;;21.55;3.58;;;15.30;99.90;;;;;;4980994;28;20150;-64
2022/10/11 00:04:43;;;;;;;18.45;3.75;;;15.30;99.90;;;;;;4955463;28;20039;-63
2022/10/11 00:07:08;;;;;;;14.27;2.45;;;15.20;99.90;;;;;;4982558;28;20421;-64
2022/10/11 00:09:34;;;;;;;20.05;3.25;;;15.20;9.20;;;;;;4992487;28;20093;-64
2022/10/11 00:12:00;;;;;;;14.43;2.63;;;15.10;99.90;;;;;;4992308;28;20042;-63
2022/10/11 00:14:26;;;;;;;22.75;3.30;;;15.10;69.40;;;;;;4974100;28;20108;-64
2022/10/11 00:16:52;;;;;;;18.58;3.33;;;15.10;99.90;;;;;;4984450;28;20408;-64
2022/10/11 00:19:18;;;;;;;16.80;2.95;;;15.30;99.90;;;;;;4988548;28;20125;-64
2022/10/11 00:21:44;;;;;;;18.70;3.42;;;15.10;1.00;;;;;;4984779;28;20118;-64
2022/10/11 00:24:11;;;;;;;22.70;2.95;;;15.60;99.90;;;;;;4972241;28;20039;-64
2022/10/11 00:26:37;;;;;;;16.48;3.22;;;15.00;99.90;;;;;;4975131;28;20069;-63
2022/10/11 00:29:02;;;;;;;21.55;3.75;;;15.00;99.90;;;;;;4973430;28;20066;-63
2022/10/11 00:31:28;;;;;;;21.02;3.95;;;14.90;99.90;;;;;;4972604;28;20046;-64
2022/10/11 00:33:54;;;;;;;18.60;3.40;;;14.90;99.90;;;;;;4972515;28;20035;-63
2022/10/11 00:36:21;;;;;;;18.83;3.33;;;14.80;1.00;;;;;;4964179;28;20043;-64
2022/10/11 00:38:47;;;;;;;20.83;3.88;;;14.80;1.00;;;;;;4989865;28;20385;-64
2022/10/11 00:41:13;;;;;;;18.40;2.92;;;14.80;95.50;;;;;;4991362;28;20046;-64
2022/10/11 00:43:39;;;;;;;20.80;3.58;;;14.80;99.90;;;;;;4991553;28;20042;-64
2022/10/11 00:46:25;;;;;;;18.75;3.92;;;14.80;99.90;;;;;;4989910;28;20169;-64
2022/10/11 00:48:58;;;;;;;18.97;3.00;;;14.70;99.90;;;;;;4973977;28;20047;-64
2022/10/11 00:51:40;;;;;;;22.58;3.35;;;14.70;99.90;;;;;;4971619;28;20046;-63
2022/10/11 00:54:10;;;;;;;16.17;3.55;;;14.70;99.90;;;;;;4991648;28;20074;-63
2022/10/11 00:56:38;;;;;;;23.90;3.78;;;14.60;1.00;;;;;;4991359;28;20412;-64
2022/10/11 00:59:11;;;;;;;22.58;3.35;;;15.20;1.00;;;;;;4991487;28;20416;-63
2022/10/11 01:01:36;;;;;;;20.02;2.95;;;14.80;19.90;;;;;;4985785;28;20038;-64
2022/10/11 01:04:02;;;;;;;21.27;3.40;;;14.40;99.90;;;;;;4954458;28;20085;-63
2022/10/11 01:06:28;;;;;;;19.27;4.10;;;14.40;99.90;;;;;;4976991;28;20069;-63
2022/10/11 01:08:53;;;;;;;21.83;3.42;;;14.30;99.90;;;;;;4973652;28;20035;-64
2022/10/11 01:11:24;;;;;;;21.70;3.47;;;14.40;1.00;;;;;;4972275;28;20043;-63
2022/10/11 01:14:18;;;;;;;22.48;3.08;;;14.30;99.90;;;;;;4976696;28;20060;-63
2022/10/11 01:17:26;;;;;;;24.35;3.47;;;14.90;99.90;;;;;;4973424;28;20039;-64
2022/10/11 01:20:19;;;;;;;19.67;3.00;;;14.30;99.90;;;;;;4921223;28;20093;-64
2022/10/11 01:23:23;;;;;;;19.13;3.05;;;14.80;99.90;;;;;;4991178;28;20046;-63
2022/10/11 01:26:09;;;;;;;19.02;3.05;;;14.30;99.90;;;;;;4991570;28;20101;-63
2022/10/11 01:28:40;;;;;;;19.90;3.13;;;14.30;99.90;;;;;;4957412;28;20035;-64
2022/10/11 01:31:22;;;;;;;16.05;3.55;;;14.30;99.90;;;;;;4973568;28;20105;-64
2022/10/11 01:34:00;;;;;;;16.95;3.03;;;15.00;99.90;;;;;;4983936;28;20046;-64
2022/10/11 01:36:55;;;;;;;21.02;3.45;;;14.30;99.90;;;;;;4975787;28;20131;-64
2022/10/11 01:39:31;;;;;;;19.70;3.97;;;14.30;99.90;;;;;;4977484;28;20042;-63
2022/10/11 01:41:58;;;;;;;;;;;14.30;99.90;;;;;;4975614;28;20039;-64
2022/10/11 01:44:25;;;;;;;13.48;2.50;;;14.20;99.90;;;;;;4977424;28;20287;-63
2022/10/11 01:46:52;;;;;;;27.33;3.78;;;14.50;99.90;;;;;;4994071;28;20126;-64
2022/10/11 01:49:18;;;;;;;20.92;3.00;;;14.10;99.90;;;;;;4994808;28;20042;-63
2022/10/11 01:51:51;;;;;;;27.85;3.10;;;14.10;99.90;;;;;;4994675;28;20046;-64
2022/10/11 01:54:38;;;;;;;20.00;3.83;;;14.10;99.90;;;;;;4994426;28;20141;-64
2022/10/11 01:57:28;;;;;;;15.63;2.92;;;14.10;99.90;;;;;;4990299;28;20050;-63
2022/10/11 02:00:18;;;;;;;16.52;3.45;;;14.10;99.90;;;;;;4977721;28;20119;-63
2022/10/11 02:02:47;;;;;;;18.02;3.20;;;14.10;99.90;;;;;;4994406;28;20120;-63
2022/10/11 02:05:43;;;;;;;16.67;2.90;;;14.10;99.90;;;;;;4978969;28;20063;-64
2022/10/11 02:08:24;;;;;;;21.95;3.10;;;14.10;99.90;;;;;;4982537;28;20118;-63
2022/10/11 02:10:59;;;;;;;23.63;3.25;;;14.10;99.90;;;;;;4981786;28;20150;-64
2022/10/11 02:13:31;;;;;;;18.70;2.75;;;14.10;99.90;;;;;;4982170;28;20485;-64
2022/10/11 02:16:01;;;;;;;18.73;2.80;;;14.60;99.90;;;;;;4974874;28;20047;-64
2022/10/11 02:18:35;;;;;;;13.77;3.22;;;14.10;99.90;;;;;;4957562;28;20081;-64
2022/10/11 02:21:07;;;;;;;21.90;2.88;;;14.10;99.90;;;;;;4975852;28;20286;-64
2022/10/11 02:23:38;;;;;;;20.13;2.50;;;14.10;99.90;;;;;;4994088;28;20038;-64
2022/10/11 02:26:07;;;;;;;17.15;3.10;;;14.10;99.90;;;;;;4993880;28;20491;-63
2022/10/11 02:28:36;;;;;;;15.50;2.42;;;14.10;99.90;;;;;;4980347;28;20492;-64
2022/10/11 02:31:05;;;;;;;11.75;2.22;;;14.10;99.90;;;;;;4975703;28;20097;-63
2022/10/11 02:33:44;;;;;;;16.60;3.22;;;13.90;99.90;;;;;;4992172;28;20053;-64
2022/10/11 02:36:18;;;;;;;19.33;2.80;;;13.70;99.90;;;;;;4984729;28;20038;-63
2022/10/11 02:38:49;;;;;;;15.63;2.63;;;13.60;99.90;;;;;;4984672;28;20043;-63
2022/10/11 02:41:28;;;;;;;12.32;1.83;;;13.60;99.90;;;;;;4974488;28;20357;-63
2022/10/11 02:44:05;;;;;;;18.30;3.50;;;13.40;99.90;;;;;;4974329;28;20046;-64
2022/10/11 02:46:31;;;;;;;14.45;2.65;;;13.10;99.90;;;;;;4955726;28;20473;-63
2022/10/11 02:49:00;;;;;;;19.45;2.35;;;12.70;99.90;;;;;;4985881;28;20495;-64
2022/10/11 02:51:29;;;;;;;14.38;2.53;;;12.70;99.90;;;;;;4993651;28;20104;-63
2022/10/11 02:53:55;;;;;;;14.40;2.70;;;12.60;99.90;;;;;;4993178;28;20054;-64
2022/10/11 02:56:20;;;;;;;13.18;2.45;;;12.60;99.90;;;;;;4991967;28;20039;-64
2022/10/11 02:58:46;;;;;;;16.88;2.30;;;12.60;99.90;;;;;;4983437;28;20069;-64
2022/10/11 03:01:12;;;;;;;17.50;2.22;;;12.70;99.90;;;;;;4973889;28;20042;-64
2022/10/11 03:03:38;;;;;;;14.68;2.72;;;12.70;99.90;;;;;;4974114;28;20034;-64
2022/10/11 03:06:04;;;;;;;15.90;3.03;;;12.80;99.90;;;;;;4974324;28;20039;-64
2022/10/11 03:08:30;;;;;;;20.17;3.50;;;12.90;99.90;;;;;;4974513;28;20086;-63
2022/10/11 03:10:55;;;;;;;14.30;2.90;;;13.00;99.90;;;;;;4940942;28;20492;-64
2022/10/11 03:13:21;;;;;;;10.95;2.25;;;13.50;99.90;;;;;;4993118;28;20050;-63
2022/10/11 03:15:51;;;;;;;11.73;2.20;;;13.10;99.90;;;;;;4947725;28;20457;-64
2022/10/11 03:18:17;;;;;;;12.88;2.33;;;13.00;99.90;;;;;;4978792;28;20046;-64
2022/10/11 03:20:43;;;;;;;10.38;2.30;;;12.60;99.90;;;;;;4993181;28;20043;-63
2022/10/11 03:23:10;;;;;;;18.17;2.60;;;12.50;99.90;;;;;;4993218;28;20034;-64
2022/10/11 03:25:35;;;;;;;18.45;2.75;;;12.50;99.90;;;;;;4993014;28;20050;-64
2022/10/11 03:28:01;;;;;;;13.95;2.42;;;12.20;99.90;;;;;;4989196;28;20349;-63
2022/10/11 03:30:27;;;;;;;12.90;2.60;;;12.20;99.90;;;;;;4973219;28;20134;-63
2022/10/11 03:32:53;;;;;;;15.02;2.67;;;12.20;99.90;;;;;;4940008;28;20540;-63
2022/10/11 03:35:18;;;;;;;13.82;2.13;;;12.20;99.90;;;;;;4986996;28;20049;-63
2022/10/11 03:37:44;;;;;;;19.10;2.88;;;13.20;99.90;;;;;;4979291;28;20485;-63
2022/10/11 03:40:11;;;;;;;16.45;2.72;;;12.70;99.90;;;;;;4975225;28;20041;-63
2022/10/11 03:42:37;;;;;;;16.98;2.50;;;12.60;99.90;;;;;;4992373;28;20085;-63
2022/10/11 03:45:06;;;;;;;15.18;2.47;;;13.00;99.90;;;;;;4992233;28;20065;-64
2022/10/11 03:47:34;;;;;;;14.77;2.67;;;12.70;99.90;;;;;;4992442;28;20030;-63
2022/10/11 03:50:00;;;;;;;13.20;2.60;;;12.90;99.90;;;;;;4991757;28;20039;-64
2022/10/11 03:52:25;;;;;;;13.20;2.28;;;12.80;99.90;;;;;;4992219;28;20361;-63
2022/10/11 03:54:51;;;;;;;14.48;2.55;;;12.90;99.90;;;;;;4992600;28;20038;-63
2022/10/11 03:57:17;;;;;;;17.25;2.78;;;13.80;99.90;;;;;;4991986;28;20053;-63
2022/10/11 03:59:43;;;;;;;13.68;2.85;;;12.80;99.90;;;;;;4990322;28;20420;-63
2022/10/11 04:02:08;;;;;;;17.67;2.85;;;12.80;99.90;;;;;;4987880;28;20034;-63
2022/10/11 04:04:34;;;;;;;14.45;2.55;;;12.60;99.90;;;;;;4963688;28;20050;-63
2022/10/11 04:06:59;;;;;;;9.90;2.08;;;12.50;99.90;;;;;;4981742;28;20061;-63
2022/10/11 04:09:25;;;;;;;9.93;2.22;;;12.40;99.90;;;;;;4944916;28;20050;-63
2022/10/11 04:11:51;;;;;;;19.42;2.50;;;12.50;99.90;;;;;;4972555;28;20049;-63
2022/10/11 04:14:16;;;;;;;19.40;2.88;;;12.40;99.90;;;;;;4982071;28;20038;-64
2022/10/11 04:16:42;;;;;;;11.80;2.45;;;12.30;99.90;;;;;;4992160;28;20038;-63
2022/10/11 04:19:07;;;;;;;17.38;2.50;;;12.40;99.90;;;;;;4963176;28;20495;-63
2022/10/11 04:21:33;;;;;;;13.32;2.17;;;12.20;99.90;;;;;;4972798;28;20120;-63
2022/10/11 04:23:59;;;;;;;11.18;2.38;;;12.30;99.90;;;;;;4973363;28;20053;-63
2022/10/11 04:26:24;;;;;;;12.43;2.15;;;12.20;99.90;;;;;;4991985;28;20511;-63
2022/10/11 04:28:50;;;;;;;18.70;2.83;;;12.30;99.90;;;;;;4983580;28;20548;-63
2022/10/11 04:31:15;;;;;;;17.50;2.95;;;12.30;99.90;;;;;;4971498;28;20050;-63
2022/10/11 04:33:41;;;;;;;14.90;2.58;;;12.50;99.90;;;;;;4991930;28;20069;-63
2022/10/11 04:36:07;;;;;;;16.90;2.50;;;12.70;99.90;;;;;;4989721;28;20038;-63
2022/10/11 04:38:32;;;;;;;13.20;2.10;;;12.70;99.90;;;;;;4964765;28;20043;-63
2022/10/11 04:41:06;;;;;;;13.15;2.38;;;12.60;99.90;;;;;;4982870;28;20117;-64
2022/10/11 04:43:31;;;;;;;19.75;2.42;;;12.60;99.90;;;;;;4972212;28;20109;-63
2022/10/11 04:45:57;;;;;;;23.67;2.80;;;12.40;99.90;;;;;;4985383;28;20488;-63
2022/10/11 04:48:22;;;;;;;15.52;2.63;;;12.70;99.90;;;;;;4972509;28;20038;-63
2022/10/11 04:50:48;;;;;;;9.75;2.67;;;12.30;99.90;;;;;;4991336;28;20046;-63
2022/10/11 04:53:14;;;;;;;14.07;2.60;;;12.30;99.90;;;;;;4989652;28;20523;-63
2022/10/11 04:55:39;;;;;;;17.05;2.42;;;12.40;99.90;;;;;;4991257;28;20054;-63
2022/10/11 04:58:05;;;;;;;15.10;2.75;;;12.80;99.90;;;;;;4990747;28;20180;-63
2022/10/11 05:00:31;;;;;;;10.00;2.00;;;12.40;99.90;;;;;;4978086;28;20374;-63
2022/10/11 05:02:56;;;;;;;15.57;2.28;;;12.50;99.90;;;;;;4972496;28;20082;-63
2022/10/11 05:05:22;;;;;;;19.48;2.60;;;12.30;99.90;;;;;;4954605;28;20544;-63
2022/10/11 05:07:48;;;;;;;10.70;2.20;;;12.00;99.90;;;;;;4972097;28;20125;-63
2022/10/11 05:10:13;;;;;;;15.88;2.90;;;12.00;99.90;;;;;;4988359;28;20395;-63
2022/10/11 05:12:39;;;;;;;10.10;2.17;;;11.90;99.90;;;;;;4977998;28;20038;-63
2022/10/11 05:15:05;;;;;;;14.15;2.50;;;11.80;99.90;;;;;;4994997;28;20035;-63
2022/10/11 05:17:31;;;;;;;14.57;2.55;;;11.80;99.90;;;;;;4981720;28;20034;-63
2022/10/11 05:19:57;;;;;;;14.82;2.45;;;11.70;99.90;;;;;;4986792;28;20476;-63
2022/10/11 05:22:22;;;;;;;13.43;2.25;;;11.60;99.90;;;;;;4977438;28;20045;-63
2022/10/11 05:24:48;;;;;;;16.70;2.55;;;11.50;99.90;;;;;;4995125;28;20041;-63
2022/10/11 05:27:13;;;;;;;13.10;2.25;;;11.70;99.90;;;;;;4994044;28;20046;-63
2022/10/11 05:29:39;;;;;;;18.02;2.22;;;11.80;99.90;;;;;;4986590;28;20162;-63
2022/10/11 05:32:04;;;;;;;11.55;2.17;;;11.60;99.90;;;;;;4980289;28;20092;-63
2022/10/11 05:34:30;;;;;;;12.57;2.00;;;11.50;99.90;;;;;;4983669;28;20038;-63
2022/10/11 05:36:56;;;;;;;13.77;2.40;;;11.40;99.90;;;;;;4984033;28;20424;-63
2022/10/11 05:39:21;;;;;;;15.05;3.17;;;11.40;99.90;;;;;;4986821;28;20102;-64
2022/10/11 05:41:47;;;;;;;17.67;2.50;;;11.40;99.90;;;;;;4975394;28;20485;-63
2022/10/11 05:44:13;;;;;;;13.25;2.25;;;11.30;99.90;;;;;;4990996;28;20122;-63
2022/10/11 05:46:38;;;;;;;9.45;2.05;;;11.50;99.90;;;;;;4994722;28;20038;-63
2022/10/11 05:49:04;;;;;;;15.02;2.70;;;11.70;99.90;;;;;;4994122;28;20522;-63
2022/10/11 05:51:29;;;;;;;15.13;2.20;;;11.30;99.90;;;;;;4994671;28;20038;-63
2022/10/11 05:53:55;;;;;;;15.30;2.25;;;11.70;99.90;;;;;;4994552;28;20068;-63
2022/10/11 05:56:23;;;;;;;17.10;2.40;;;11.60;99.90;;;;;;4994288;28;20121;-63
2022/10/11 05:58:50;;;;;;;13.18;2.40;;;11.50;99.90;;;;;;4992859;28;20042;-64
2022/10/11 06:01:26;;;;;;;17.88;2.28;;;11.60;99.90;;;;;;4988718;28;20046;-63
2022/10/11 06:03:52;;;;;;;11.60;2.00;;;11.50;99.90;;;;;;4958331;28;20038;-63
2022/10/11 06:06:18;;;;;;;15.25;2.55;;;11.40;99.90;;;;;;4976978;28;20041;-63
2022/10/11 06:08:44;;;;;;;20.73;2.58;;;11.60;99.90;;;;;;4993806;28;20451;-63
2022/10/11 06:11:12;;;;;;;17.15;2.45;;;11.30;99.90;;;;;;4991933;28;20062;-63
2022/10/11 06:13:37;;;;;;;10.88;2.05;;;11.10;99.90;;;;;;4957261;28;20042;-63
2022/10/11 06:16:03;;;;;;;19.52;2.53;;;11.50;99.90;;;;;;4975266;28;20488;-63
2022/10/11 06:18:29;;;;;;;17.00;2.85;;;11.60;99.90;;;;;;4973403;28;20121;-63
2022/10/11 06:20:57;;;;;;;16.50;2.85;;;11.60;99.90;;;;;;4991749;28;20382;-63
2022/10/11 06:23:23;;;;;;;16.52;2.60;;;11.40;99.90;;;;;;4974751;28;20054;-62
2022/10/11 06:25:59;;;;;;;11.50;2.45;;;12.00;99.90;;;;;;4974667;28;20039;-63
2022/10/11 06:28:26;;;;;;;14.95;2.92;;;12.20;99.90;;;;;;4974677;28;20093;-63
2022/10/11 06:30:52;;;;;;;16.38;2.47;;;11.70;99.90;;;;;;4987720;28;20046;-63
2022/10/11 06:33:18;;;;;;;15.73;3.08;;;11.90;99.90;;;;;;4994025;28;20042;-63
2022/10/11 06:35:44;;;;;;;19.13;2.53;;;12.40;99.90;;;;;;4993630;28;20053;-63
2022/10/11 06:38:09;;;;;;;18.92;3.10;;;13.00;99.90;;;;;;4976880;28;20042;-63
2022/10/11 06:40:35;;;;;;;24.05;3.28;;;12.10;99.90;;;;;;4993567;28;20053;-63
2022/10/11 06:43:01;;;;;;;14.82;3.72;;;12.50;99.90;;;;;;4993793;28;20038;-63
2022/10/11 06:45:26;;;;;;;12.38;2.83;;;13.60;99.90;;;;;;4993362;28;20045;-63
2022/10/11 06:47:52;;;;;;;14.95;2.50;;;13.10;99.90;;;;;;4978250;28;20039;-63
2022/10/11 06:50:17;;;;;;;29.40;3.22;;;13.70;99.90;;;;;;4984296;28;20038;-63
2022/10/11 06:52:43;;;;;;;21.23;3.28;;;13.30;99.90;;;;;;4975903;28;20527;-63
2022/10/11 06:55:08;;;;;;;16.02;2.70;;;14.20;99.90;;;;;;4978116;28;20038;-63
2022/10/11 06:57:34;;;;;;;12.50;2.33;;;13.90;99.90;;;;;;4956508;28;20101;-64
2022/10/11 07:00:00;;;;;;;16.00;2.55;;;14.40;99.90;;;;;;4979314;28;20031;-63
2022/10/11 07:02:25;;;;;;;15.48;2.80;;;14.40;99.90;;;;;;4993095;28;20034;-64
2022/10/11 07:04:51;;;;;;;17.33;2.90;;;13.90;99.90;;;;;;4983937;28;20046;-64
2022/10/11 07:07:16;;;;;;;15.48;2.90;;;14.60;99.90;;;;;;4973821;28;20038;-63
2022/10/11 07:09:42;;;;;;;19.33;3.00;;;13.90;99.90;;;;;;4975033;28;20051;-63
2022/10/11 07:12:08;;;;;;;17.58;2.92;;;14.40;99.90;;;;;;4993533;28;20038;-63
2022/10/11 07:14:33;;;;;;;21.65;2.97;;;14.60;99.90;;;;;;4988916;28;20089;-63
2022/10/11 07:16:59;;;;;;;20.52;3.10;;;14.30;99.90;;;;;;4974707;28;20047;-63
2022/10/11 07:19:24;;;;;;;14.07;2.80;;;14.50;99.90;;;;;;4955911;28;20054;-63
2022/10/11 07:21:50;;;;;;;19.17;3.20;;;14.70;99.90;;;;;;4974027;28;20125;-63
2022/10/11 07:24:15;;;;;;;18.00;2.80;;;13.80;99.90;;;;;;4974603;28;20046;-63
2022/10/11 07:26:41;;;;;;;23.27;3.45;;;14.10;99.90;;;;;;4974691;28;20050;-64
2022/10/11 07:29:09;;;;;;;18.30;3.00;;;14.60;99.90;;;;;;4982568;28;20038;-64
2022/10/11 07:31:37;;;;;;;17.25;2.67;;;14.40;99.90;;;;;;4973309;28;20591;-63
2022/10/11 07:34:02;;;;;;;14.30;2.58;;;14.70;99.90;;;;;;4973370;28;20042;-63
2022/10/11 07:36:28;;;;;;;15.15;2.53;;;14.50;99.90;;;;;;4991818;28;20042;-63
2022/10/11 07:38:54;;;;;;;14.27;2.60;;;14.20;99.90;;;;;;4975080;28;20420;-64
2022/10/11 07:41:19;;;;;;;17.77;3.17;;;15.10;99.90;;;;;;4990099;28;20129;-63
2022/10/11 07:43:46;;;;;;;15.95;2.33;;;15.20;99.90;;;;;;4974752;28;20054;-64
2022/10/11 07:46:12;;;;;;;16.70;2.85;;;15.10;99.90;;;;;;4989720;28;20049;-63
2022/10/11 07:48:38;;;;;;;17.20;2.95;;;14.90;99.90;;;;;;4992488;28;20038;-64
2022/10/11 07:51:07;;;;;;;17.85;3.28;;;15.10;99.90;;;;;;4992532;28;20092;-64
2022/10/11 07:53:41;;;;;;;17.50;2.92;;;15.30;99.90;;;;;;4992030;28;20054;-64
2022/10/11 07:56:08;;;;;;;19.13;2.45;;;16.00;99.90;;;;;;4976678;28;20039;-64
2022/10/11 07:58:34;;;;;;;18.15;4.07;;;16.00;99.90;;;;;;4992034;28;20053;-64
2022/10/11 08:00:59;;;;;;;16.60;3.22;;;16.30;99.90;;;;;;4980756;28;20035;-64
2022/10/11 08:03:25;;;;;;;17.15;2.90;;;16.30;99.90;;;;;;4972856;28;20042;-64
2022/10/11 08:05:51;;;;;;;19.05;3.55;;;16.40;99.90;;;;;;4967430;28;20050;-64
2022/10/11 08:08:18;;;;;;;14.02;2.80;;;16.50;99.90;;;;;;4991998;28;20038;-64
2022/10/11 08:10:43;;;;;;;17.67;2.72;;;16.50;99.90;;;;;;4992088;28;20038;-64
2022/10/11 08:13:09;;;;;;;17.02;2.88;;;17.00;99.90;;;;;;4974262;28;20042;-64
2022/10/11 08:15:35;;;;;;;16.55;2.70;;;17.20;99.90;;;;;;4990146;28;20539;-64
2022/10/11 08:18:00;;;;;;;16.20;2.70;;;17.50;99.90;;;;;;4974288;28;20065;-64
2022/10/11 08:20:26;;;;;;;15.85;3.15;;;17.50;99.90;;;;;;4974630;28;20046;-64
2022/10/11 08:22:52;;;;;;;15.15;2.95;;;17.80;99.90;;;;;;4992144;28;20042;-65
2022/10/11 08:25:17;;;;;;;14.63;3.03;;;17.30;99.90;;;;;;4983808;28;20149;-64
2022/10/11 08:27:43;;;;;;;30.33;3.22;;;17.10;99.90;;;;;;4955286;28;20129;-64
2022/10/11 08:30:09;;;;;;;16.00;2.75;;;17.00;99.90;;;;;;4954929;28;20362;-64
2022/10/11 08:32:35;;;;;;;13.85;2.40;;;17.10;99.90;;;;;;4972437;28;20046;-65
2022/10/11 08:35:00;;;;;;;14.60;2.85;;;17.20;99.90;;;;;;4985234;28;20460;-65
2022/10/11 08:37:27;;;;;;;15.18;3.13;;;17.30;99.90;;;;;;4974501;28;20085;-65
2022/10/11 08:39:52;;;;;;;11.00;2.50;;;17.40;99.90;;;;;;4957872;28;20046;-65
2022/10/11 08:42:41;;;;;;;19.83;3.35;;;17.60;99.90;;;;;;4962243;28;20073;-65
2022/10/11 08:45:17;;;;;;;14.88;2.45;;;17.90;99.90;;;;;;4974853;28;20081;-65
2022/10/11 08:47:44;;;;;;;15.23;3.00;;;18.20;99.90;;;;;;4987415;28;20069;-65
2022/10/11 08:50:22;;;;;;;15.60;3.08;;;18.30;99.90;;;;;;4974350;28;20051;-65
2022/10/11 08:52:56;;;;;;;13.43;2.50;;;18.50;99.90;;;;;;4991151;28;20393;-65
2022/10/11 08:55:36;;;;;;;12.73;2.63;;;18.80;99.90;;;;;;4983625;28;20105;-66
2022/10/11 08:58:02;;;;;;;12.43;2.17;;;19.00;99.90;;;;;;4964290;28;20035;-65
2022/10/11 09:00:31;;;;;;;13.43;2.67;;;19.20;99.90;;;;;;4957190;28;20042;-65
2022/10/11 09:03:06;;;;;;;16.35;2.90;;;19.00;99.90;;;;;;4989945;28;20038;-65
2022/10/11 09:05:35;;;;;;;19.20;2.78;;;18.90;99.90;;;;;;4957880;28;20039;-66
2022/10/11 09:08:03;;;;;;;10.43;2.42;;;18.70;99.90;;;;;;4973700;28;20134;-66
2022/10/11 09:11:01;;;;;;;11.73;2.38;;;18.50;99.90;;;;;;4987745;28;20377;-65
2022/10/11 09:13:54;;;;;;;14.55;3.33;;;18.30;99.90;;;;;;4991316;28;20054;-65
2022/10/11 09:16:50;;;;;;;13.57;2.58;;;18.40;99.90;;;;;;4987262;28;20373;-65
2022/10/11 09:19:37;;;;;;;10.27;2.95;;;18.30;99.90;;;;;;4972391;28;20069;-65
2022/10/11 09:22:11;;;;;;;12.32;2.55;;;18.40;99.90;;;;;;4990021;28;20291;-66
2022/10/11 09:25:06;;;;;;;12.57;2.50;;;18.40;99.90;;;;;;4991345;28;20050;-66
2022/10/11 09:27:52;;;;;;;15.80;2.80;;;18.40;99.90;;;;;;4987670;28;20400;-65
2022/10/11 09:30:19;;;;;;;12.25;2.50;;;18.50;99.90;;;;;;4957816;28;20034;-65
2022/10/11 09:32:50;;;;;;;12.27;2.50;;;18.50;99.90;;;;;;4975866;28;20082;-65
2022/10/11 09:35:19;;;;;;;14.13;2.58;;;18.40;99.90;;;;;;4971799;28;20412;-65
2022/10/11 09:38:06;;;;;;;16.20;3.10;;;18.30;99.90;;;;;;4983985;28;20047;-65
2022/10/11 09:41:01;;;;;;;13.43;2.60;;;18.30;99.90;;;;;;4991046;28;20516;-65
2022/10/11 09:43:27;;;;;;;16.95;3.40;;;18.50;99.90;;;;;;4991205;28;20460;-65
2022/10/11 09:45:52;;;;;;;16.42;3.15;;;18.50;99.90;;;;;;4990795;28;20034;-65
2022/10/11 09:48:22;;;;;;;11.85;2.97;;;18.40;99.90;;;;;;4990331;28;20042;-65
2022/10/11 09:50:49;;;;;;;12.13;2.50;;;18.50;99.90;;;;;;4990950;28;20053;-65
2022/10/11 09:53:15;;;;;;;13.20;2.55;;;18.50;99.90;;;;;;4990569;28;20050;-65
2022/10/11 09:55:52;;;;;;;13.25;2.78;;;18.80;99.90;;;;;;4993565;28;20065;-65
2022/10/11 09:58:31;;;;;;;15.15;2.75;;;18.70;99.90;;;;;;4977185;28;20089;-65
2022/10/11 10:01:20;;;;;;;18.98;3.25;;;18.70;99.90;;;;;;4964036;28;20046;-65
2022/10/11 10:03:46;;;;;;;8.98;2.10;;;18.70;99.90;;;;;;4957179;28;20060;-65
2022/10/11 10:06:26;;;;;;;12.07;2.47;;;18.70;99.90;;;;;;4943702;28;20042;-65
2022/10/11 10:08:51;;;;;;;10.35;2.42;;;18.60;99.90;;;;;;4981225;28;20532;-65
2022/10/11 10:11:18;;;;;;;16.13;2.65;;;18.70;99.90;;;;;;5000893;28;20081;-65
2022/10/11 10:13:44;;;;;;;15.93;2.50;;;18.70;99.90;;;;;;4965778;28;20125;-65
2022/10/11 10:16:31;;;;;;;15.68;2.83;;;18.80;99.90;;;;;;4982976;28;20050;-65
2022/10/11 10:19:06;;;;;;;8.73;1.98;;;18.80;99.90;;;;;;4963245;28;20045;-65
2022/10/11 10:21:37;;;;;;;12.25;2.50;;;18.70;99.90;;;;;;4983755;28;20514;-65
2022/10/11 10:24:19;;;;;;;16.23;3.03;;;18.60;1.00;;;;;;4976854;28;20039;-64
2022/10/11 10:27:13;;;;;;;14.82;2.40;;;18.50;1.00;;;;;;4974428;28;20035;-65
2022/10/11 10:29:39;;;;;;;16.88;2.72;;;18.40;84.00;;;;;;4974952;28;20051;-65
2022/10/11 10:32:22;;;;;;;10.55;2.38;;;18.30;99.90;;;;;;4980184;28;20046;-64
2022/10/11 10:35:11;;;;;;;17.00;3.03;;;18.10;99.90;;;;;;4993654;28;20084;-64
2022/10/11 10:38:17;;;;;;;14.85;2.60;;;18.10;99.90;;;;;;4992317;28;20049;-65
2022/10/11 10:40:48;;;;;;;21.55;3.00;;;18.10;99.90;;;;;;4993577;28;20117;-64
2022/10/11 10:43:16;;;;;;;15.73;3.30;;;18.20;99.90;;;;;;4987138;28;20454;-65
2022/10/11 10:46:07;;;;;;;10.93;2.25;;;18.20;99.90;;;;;;4940647;28;20401;-65
2022/10/11 10:48:51;;;;;;;10.85;2.17;;;18.20;1.00;;;;;;4983225;28;20466;-64
2022/10/11 10:51:19;;;;;;;10.57;2.30;;;18.20;99.90;;;;;;4993425;28;20038;-64
2022/10/11 10:54:15;;;;;;;10.38;2.15;;;18.30;1.00;;;;;;4993277;28;20472;-65
2022/10/11 10:56:57;;;;;;;8.88;2.30;;;18.30;99.90;;;;;;4971393;28;20450;-65
2022/10/11 10:59:38;;;;;;;10.10;2.08;;;18.40;99.90;;;;;;4980798;28;20043;-65
2022/10/11 11:02:26;;;;;;;14.35;2.50;;;18.50;99.90;;;;;;4973676;28;20039;-64
2022/10/11 11:05:10;;;;;;;12.43;2.30;;;18.50;1.00;;;;;;4975401;28;20129;-65
2022/10/11 11:07:50;;;;;;;11.57;2.70;;;18.50;1.00;;;;;;4973761;28;20125;-65
2022/10/11 11:10:21;;;;;;;14.75;2.70;;;18.50;99.90;;;;;;4956140;28;20408;-64
2022/10/11 11:13:06;;;;;;;15.18;2.40;;;18.50;99.90;;;;;;4978317;28;20043;-65
2022/10/11 11:15:49;;;;;;;12.05;2.13;;;18.50;34.70;;;;;;4973965;28;20429;-64
2022/10/11 11:18:44;;;;;;;11.90;2.65;;;18.50;1.00;;;;;;4982464;28;20516;-64
2022/10/11 11:21:21;;;;;;;13.73;2.33;;;18.40;99.90;;;;;;4987856;28;20077;-64
2022/10/11 11:24:07;;;;;;;13.40;2.42;;;18.50;1.00;;;;;;4993077;28;20053;-64
2022/10/11 11:26:48;;;;;;;15.27;2.90;;;18.60;99.90;;;;;;4990851;28;20463;-64
2022/10/11 11:29:56;;;;;;;17.73;2.85;;;18.60;99.90;;;;;;4978120;28;20050;-64
2022/10/11 11:33:02;;;;;;;13.18;2.63;;;18.50;99.90;;;;;;4980552;28;20125;-64
2022/10/11 11:35:33;;;;;;;11.20;2.20;;;18.50;99.90;;;;;;4955714;28;20054;-64
2022/10/11 11:38:15;;;;;;;18.67;2.90;;;18.50;99.90;;;;;;4977654;28;20488;-64
2022/10/11 11:41:02;;;;;;;12.60;2.30;;;18.40;99.90;;;;;;4992700;28;20042;-64
2022/10/11 11:43:53;;;;;;;;;;;18.40;99.90;;;;;;4992493;28;20049;-64
2022/10/11 11:46:30;;;;;;;20.73;2.63;;;18.40;65.90;;;;;;4952595;28;20259;-65
2022/10/11 11:49:01;;;;;;;16.35;3.13;;;18.30;99.90;;;;;;4992353;28;20046;-64
2022/10/11 11:51:39;;;;;;;13.30;2.50;;;18.30;99.90;;;;;;4990323;28;20056;-64
2022/10/11 11:54:28;;;;;;;8.00;2.05;;;18.30;1.00;;;;;;4992340;28;20061;-64
2022/10/11 11:57:02;;;;;;;17.17;3.05;;;18.30;99.90;;;;;;4974597;28;20100;-64
2022/10/11 11:59:33;;;;;;;16.30;2.45;;;18.40;1.00;;;;;;4991909;28;20514;-63
2022/10/11 12:02:14;;;;;;;12.73;2.85;;;18.60;18.60;;;;;;4974043;28;20070;-64
2022/10/11 12:04:43;;;;;;;10.20;2.20;;;18.30;1.00;;;;;;4991967;28;20050;-67
2022/10/11 12:07:15;;;;;;;18.00;2.78;;;18.20;99.90;;;;;;4964577;28;20186;-67
2022/10/11 12:09:44;;;;;;;15.55;2.30;;;18.40;99.90;;;;;;4955213;28;20047;-67
2022/10/11 12:12:42;;;;;;;16.77;2.80;;;18.20;99.90;;;;;;4940727;28;20035;-68
2022/10/11 12:15:08;;;;;;;9.48;2.20;;;18.20;99.90;;;;;;4923319;28;20057;-68
2022/10/11 12:17:57;;;;;;;16.52;2.40;;;18.30;1.00;;;;;;4954711;28;20054;-68
2022/10/11 12:20:27;;;;;;;14.63;2.08;;;18.50;1.00;;;;;;4954540;28;20046;-68
2022/10/11 12:22:59;;;;;;;13.05;2.35;;;18.60;1.00;;;;;;4973058;28;20122;-67
2022/10/11 12:25:25;;;;;;;13.23;2.08;;;18.60;1.00;;;;;;4955202;28;20464;-67
2022/10/11 12:27:53;;;;;;;14.07;2.35;;;18.70;99.90;;;;;;4962148;28;20042;-67
2022/10/11 12:30:47;;;;;;;9.25;2.25;;;18.60;1.00;;;;;;4974179;28;20041;-67
2022/10/11 12:33:44;;;;;;;13.57;2.97;;;18.60;99.90;;;;;;4963097;28;20399;-67
2022/10/11 12:36:32;;;;;;;11.77;2.08;;;18.60;99.90;;;;;;4965906;28;20448;-67
2022/10/11 12:39:17;;;;;;;14.77;2.50;;;18.50;99.90;;;;;;4973723;28;20046;-67
2022/10/11 12:41:49;;;;;;;11.35;2.22;;;18.50;94.20;;;;;;4974151;28;20399;-67
2022/10/11 12:44:17;;;;;;;13.23;2.25;;;18.70;1.00;;;;;;4974055;28;20604;-67
2022/10/11 12:46:49;;;;;;;17.35;2.55;;;18.50;20.40;;;;;;4973921;28;20134;-68
2022/10/11 12:49:44;;;;;;;9.10;1.80;;;18.40;99.90;;;;;;4968393;28;20388;-67
2022/10/11 12:52:21;;;;;;;9.63;2.05;;;18.50;99.90;;;;;;4957916;28;20039;-68
2022/10/11 12:55:21;;;;;;;15.55;2.53;;;18.40;99.90;;;;;;4973864;28;20069;-68
2022/10/11 12:57:55;;;;;;;10.77;1.98;;;18.30;99.90;;;;;;4973982;28;20076;-68
2022/10/11 13:00:32;;;;;;;12.93;1.73;;;18.20;15.80;;;;;;4938837;28;20421;-68
2022/10/11 13:03:01;;;;;;;17.33;2.10;;;18.30;71.50;;;;;;4948559;28;20484;-67